sensor_id;sensor_type;location;lat;lon;timestamp;P1;durP1;ratioP1;P2;durP2;ratioP2
20865;SDS011;10593;48.398;10.698;2022-08-20T00:01:43;11.87;;;10.87;;
20865;SDS011;10593;48.398;10.698;2022-08-20T00:04:11;12.80;;;11.70;;
20865;SDS011;10593;48.398;10.698;2022-08-20T00:06:38;11.93;;;10.93;;
20865;SDS011;10593;48.398;10.698;2022-08-20T00:09:05;12.30;;;11.30;;
20865;SDS011;10593;48.398;10.698;2022-08-20T00:11:31;11.80;;;10.90;;
20865;SDS011;10593;48.398;10.698;2022-08-20T00:14:01;11.70;;;10.70;;
20865;SDS011;10593;48.398;10.698;2022-08-20T00:16:30;12.37;;;11.37;;
20865;SDS011;10593;48.398;10.698;2022-08-20T00:19:00;11.87;;;10.87;;
20865;SDS011;10593;48.398;10.698;2022-08-20T00:21:30;13.00;;;11.80;;
20865;SDS011;10593;48.398;10.698;2022-08-20T00:23:56;12.77;;;11.67;;
20865;SDS011;10593;48.398;10.698;2022-08-20T00:26:22;12.67;;;11.47;;
20865;SDS011;10593;48.398;10.698;2022-08-20T00:28:49;12.63;;;11.63;;
20865;SDS011;10593;48.398;10.698;2022-08-20T00:31:17;12.63;;;11.60;;
20865;SDS011;10593;48.398;10.698;2022-08-20T00:33:46;13.23;;;12.07;;
20865;SDS011;10593;48.398;10.698;2022-08-20T00:36:12;13.07;;;11.97;;
20865;SDS011;10593;48.398;10.698;2022-08-20T00:38:42;12.97;;;11.80;;
20865;SDS011;10593;48.398;10.698;2022-08-20T00:41:11;12.83;;;11.80;;
20865;SDS011;10593;48.398;10.698;2022-08-20T00:43:51;12.90;;;11.80;;
20865;SDS011;10593;48.398;10.698;2022-08-20T00:46:31;12.77;;;11.77;;
20865;SDS011;10593;48.398;10.698;2022-08-20T00:48:58;12.47;;;11.47;;
20865;SDS011;10593;48.398;10.698;2022-08-20T00:54:17;12.33;;;11.23;;
20865;SDS011;10593;48.398;10.698;2022-08-20T00:56:54;12.60;;;11.50;;
20865;SDS011;10593;48.398;10.698;2022-08-20T00:59:32;12.10;;;10.93;;
20865;SDS011;10593;48.398;10.698;2022-08-20T01:02:01;11.93;;;10.93;;
20865;SDS011;10593;48.398;10.698;2022-08-20T01:04:33;12.20;;;11.20;;
20865;SDS011;10593;48.398;10.698;2022-08-20T01:06:59;11.53;;;10.63;;
20865;SDS011;10593;48.398;10.698;2022-08-20T01:09:29;11.23;;;10.33;;
20865;SDS011;10593;48.398;10.698;2022-08-20T01:11:55;11.57;;;10.57;;
20865;SDS011;10593;48.398;10.698;2022-08-20T01:14:21;12.27;;;11.00;;
20865;SDS011;10593;48.398;10.698;2022-08-20T01:17:00;10.77;;;9.97;;
20865;SDS011;10593;48.398;10.698;2022-08-20T01:19:33;12.13;;;10.93;;
20865;SDS011;10593;48.398;10.698;2022-08-20T01:22:04;10.90;;;10.00;;
20865;SDS011;10593;48.398;10.698;2022-08-20T01:24:54;10.87;;;9.93;;
20865;SDS011;10593;48.398;10.698;2022-08-20T01:27:32;11.70;;;10.70;;
20865;SDS011;10593;48.398;10.698;2022-08-20T01:29:59;11.57;;;10.67;;
20865;SDS011;10593;48.398;10.698;2022-08-20T01:32:26;10.90;;;9.90;;
20865;SDS011;10593;48.398;10.698;2022-08-20T01:34:52;10.87;;;9.87;;
20865;SDS011;10593;48.398;10.698;2022-08-20T01:37:18;10.43;;;9.63;;
20865;SDS011;10593;48.398;10.698;2022-08-20T01:39:43;10.33;;;9.43;;
20865;SDS011;10593;48.398;10.698;2022-08-20T01:44:53;9.83;;;9.03;;
20865;SDS011;10593;48.398;10.698;2022-08-20T01:47:20;11.07;;;10.17;;
20865;SDS011;10593;48.398;10.698;2022-08-20T01:49:54;9.90;;;9.13;;
20865;SDS011;10593;48.398;10.698;2022-08-20T01:55:07;9.70;;;8.90;;
20865;SDS011;10593;48.398;10.698;2022-08-20T01:57:35;10.03;;;9.23;;
20865;SDS011;10593;48.398;10.698;2022-08-20T02:00:04;9.50;;;8.80;;
20865;SDS011;10593;48.398;10.698;2022-08-20T02:02:35;9.27;;;8.57;;
20865;SDS011;10593;48.398;10.698;2022-08-20T02:05:02;9.37;;;8.67;;
20865;SDS011;10593;48.398;10.698;2022-08-20T02:07:28;9.43;;;8.67;;
20865;SDS011;10593;48.398;10.698;2022-08-20T02:09:56;9.57;;;8.77;;
20865;SDS011;10593;48.398;10.698;2022-08-20T02:12:23;8.83;;;8.13;;
20865;SDS011;10593;48.398;10.698;2022-08-20T02:14:51;9.30;;;8.40;;
20865;SDS011;10593;48.398;10.698;2022-08-20T02:17:21;9.40;;;8.50;;
20865;SDS011;10593;48.398;10.698;2022-08-20T02:19:51;9.57;;;8.83;;
20865;SDS011;10593;48.398;10.698;2022-08-20T02:25:14;9.77;;;8.60;;
20865;SDS011;10593;48.398;10.698;2022-08-20T02:27:41;9.27;;;8.13;;
20865;SDS011;10593;48.398;10.698;2022-08-20T02:30:12;9.83;;;9.03;;
20865;SDS011;10593;48.398;10.698;2022-08-20T02:32:46;10.17;;;9.27;;
20865;SDS011;10593;48.398;10.698;2022-08-20T02:35:12;9.43;;;8.63;;
20865;SDS011;10593;48.398;10.698;2022-08-20T02:37:40;8.80;;;8.20;;
20865;SDS011;10593;48.398;10.698;2022-08-20T02:40:10;8.80;;;8.07;;
20865;SDS011;10593;48.398;10.698;2022-08-20T02:42:40;9.67;;;8.87;;
20865;SDS011;10593;48.398;10.698;2022-08-20T02:45:07;8.93;;;8.13;;
20865;SDS011;10593;48.398;10.698;2022-08-20T02:47:35;9.43;;;8.73;;
20865;SDS011;10593;48.398;10.698;2022-08-20T02:50:03;9.13;;;8.43;;
20865;SDS011;10593;48.398;10.698;2022-08-20T02:52:30;9.40;;;8.60;;
20865;SDS011;10593;48.398;10.698;2022-08-20T02:54:56;9.00;;;8.13;;
20865;SDS011;10593;48.398;10.698;2022-08-20T02:57:22;9.03;;;8.33;;
20865;SDS011;10593;48.398;10.698;2022-08-20T02:59:48;9.00;;;8.20;;
20865;SDS011;10593;48.398;10.698;2022-08-20T03:02:17;8.23;;;7.57;;
20865;SDS011;10593;48.398;10.698;2022-08-20T03:04:43;8.13;;;7.53;;
20865;SDS011;10593;48.398;10.698;2022-08-20T03:07:09;8.83;;;8.03;;
20865;SDS011;10593;48.398;10.698;2022-08-20T03:09:36;8.63;;;7.93;;
20865;SDS011;10593;48.398;10.698;2022-08-20T03:12:03;8.97;;;8.27;;
20865;SDS011;10593;48.398;10.698;2022-08-20T03:14:30;8.33;;;7.67;;
20865;SDS011;10593;48.398;10.698;2022-08-20T03:16:56;8.13;;;7.53;;
20865;SDS011;10593;48.398;10.698;2022-08-20T03:19:23;8.17;;;7.37;;
20865;SDS011;10593;48.398;10.698;2022-08-20T03:21:49;9.47;;;8.77;;
20865;SDS011;10593;48.398;10.698;2022-08-20T03:24:15;8.90;;;8.20;;
20865;SDS011;10593;48.398;10.698;2022-08-20T03:26:41;8.87;;;8.17;;
20865;SDS011;10593;48.398;10.698;2022-08-20T03:29:07;8.80;;;8.10;;
20865;SDS011;10593;48.398;10.698;2022-08-20T03:31:32;7.90;;;7.20;;
20865;SDS011;10593;48.398;10.698;2022-08-20T03:33:58;8.87;;;8.17;;
20865;SDS011;10593;48.398;10.698;2022-08-20T03:36:24;8.33;;;7.63;;
20865;SDS011;10593;48.398;10.698;2022-08-20T03:38:52;9.37;;;8.57;;
20865;SDS011;10593;48.398;10.698;2022-08-20T03:41:20;8.97;;;8.17;;
20865;SDS011;10593;48.398;10.698;2022-08-20T03:43:46;8.50;;;7.80;;
20865;SDS011;10593;48.398;10.698;2022-08-20T03:46:11;9.10;;;8.40;;
20865;SDS011;10593;48.398;10.698;2022-08-20T03:48:37;8.80;;;7.90;;
20865;SDS011;10593;48.398;10.698;2022-08-20T03:51:03;8.30;;;7.60;;
20865;SDS011;10593;48.398;10.698;2022-08-20T03:53:29;7.30;;;6.80;;
20865;SDS011;10593;48.398;10.698;2022-08-20T03:55:56;8.77;;;8.07;;
20865;SDS011;10593;48.398;10.698;2022-08-20T03:58:28;8.40;;;7.63;;
20865;SDS011;10593;48.398;10.698;2022-08-20T04:00:57;7.63;;;7.03;;
20865;SDS011;10593;48.398;10.698;2022-08-20T04:03:24;7.50;;;6.90;;
20865;SDS011;10593;48.398;10.698;2022-08-20T04:05:51;8.17;;;7.57;;
20865;SDS011;10593;48.398;10.698;2022-08-20T04:08:19;8.60;;;7.97;;
20865;SDS011;10593;48.398;10.698;2022-08-20T04:10:51;7.67;;;6.97;;
20865;SDS011;10593;48.398;10.698;2022-08-20T04:13:19;7.77;;;7.13;;
20865;SDS011;10593;48.398;10.698;2022-08-20T04:15:46;8.27;;;7.67;;
20865;SDS011;10593;48.398;10.698;2022-08-20T04:18:13;8.07;;;7.47;;
20865;SDS011;10593;48.398;10.698;2022-08-20T04:20:44;8.00;;;6.87;;
20865;SDS011;10593;48.398;10.698;2022-08-20T04:23:11;8.40;;;7.70;;
20865;SDS011;10593;48.398;10.698;2022-08-20T04:25:39;7.70;;;7.10;;
20865;SDS011;10593;48.398;10.698;2022-08-20T04:28:09;7.30;;;6.80;;
20865;SDS011;10593;48.398;10.698;2022-08-20T04:30:48;8.60;;;7.40;;
20865;SDS011;10593;48.398;10.698;2022-08-20T04:33:16;6.97;;;6.47;;
20865;SDS011;10593;48.398;10.698;2022-08-20T04:35:43;7.47;;;6.87;;
20865;SDS011;10593;48.398;10.698;2022-08-20T04:38:11;7.80;;;7.20;;
20865;SDS011;10593;48.398;10.698;2022-08-20T04:40:40;7.57;;;6.97;;
20865;SDS011;10593;48.398;10.698;2022-08-20T04:43:23;8.10;;;7.30;;
20865;SDS011;10593;48.398;10.698;2022-08-20T04:45:58;7.13;;;6.63;;
20865;SDS011;10593;48.398;10.698;2022-08-20T04:48:34;7.37;;;6.83;;
20865;SDS011;10593;48.398;10.698;2022-08-20T04:51:05;7.00;;;6.50;;
20865;SDS011;10593;48.398;10.698;2022-08-20T04:53:33;9.30;;;6.77;;
20865;SDS011;10593;48.398;10.698;2022-08-20T04:55:59;7.47;;;6.83;;
20865;SDS011;10593;48.398;10.698;2022-08-20T04:58:30;7.40;;;6.77;;
20865;SDS011;10593;48.398;10.698;2022-08-20T05:01:02;7.47;;;6.97;;
20865;SDS011;10593;48.398;10.698;2022-08-20T05:03:36;7.23;;;6.67;;
20865;SDS011;10593;48.398;10.698;2022-08-20T05:06:04;7.33;;;6.63;;
20865;SDS011;10593;48.398;10.698;2022-08-20T05:08:34;7.37;;;6.87;;
20865;SDS011;10593;48.398;10.698;2022-08-20T05:11:02;7.43;;;6.93;;
20865;SDS011;10593;48.398;10.698;2022-08-20T05:13:30;7.17;;;6.60;;
20865;SDS011;10593;48.398;10.698;2022-08-20T05:15:56;7.60;;;7.00;;
20865;SDS011;10593;48.398;10.698;2022-08-20T05:18:25;7.03;;;6.53;;
20865;SDS011;10593;48.398;10.698;2022-08-20T05:20:50;6.93;;;6.43;;
20865;SDS011;10593;48.398;10.698;2022-08-20T05:23:18;7.50;;;6.80;;
20865;SDS011;10593;48.398;10.698;2022-08-20T05:25:46;7.30;;;6.70;;
20865;SDS011;10593;48.398;10.698;2022-08-20T05:28:18;6.53;;;6.03;;
20865;SDS011;10593;48.398;10.698;2022-08-20T05:30:50;6.87;;;6.37;;
20865;SDS011;10593;48.398;10.698;2022-08-20T05:33:18;6.47;;;6.00;;
20865;SDS011;10593;48.398;10.698;2022-08-20T05:35:46;6.73;;;6.17;;
20865;SDS011;10593;48.398;10.698;2022-08-20T05:38:17;7.00;;;6.40;;
20865;SDS011;10593;48.398;10.698;2022-08-20T05:40:46;7.03;;;6.53;;
20865;SDS011;10593;48.398;10.698;2022-08-20T05:43:12;6.27;;;5.83;;
20865;SDS011;10593;48.398;10.698;2022-08-20T05:45:39;5.73;;;5.33;;
20865;SDS011;10593;48.398;10.698;2022-08-20T05:48:08;6.43;;;5.93;;
20865;SDS011;10593;48.398;10.698;2022-08-20T05:50:39;6.27;;;5.77;;
20865;SDS011;10593;48.398;10.698;2022-08-20T05:53:08;6.70;;;5.47;;
20865;SDS011;10593;48.398;10.698;2022-08-20T05:55:34;6.30;;;5.80;;
20865;SDS011;10593;48.398;10.698;2022-08-20T05:58:04;5.93;;;5.43;;
20865;SDS011;10593;48.398;10.698;2022-08-20T06:00:38;5.70;;;5.20;;
20865;SDS011;10593;48.398;10.698;2022-08-20T06:03:04;6.10;;;5.60;;
20865;SDS011;10593;48.398;10.698;2022-08-20T06:05:48;6.03;;;5.53;;
20865;SDS011;10593;48.398;10.698;2022-08-20T06:08:15;5.60;;;5.20;;
20865;SDS011;10593;48.398;10.698;2022-08-20T06:10:41;5.93;;;5.47;;
20865;SDS011;10593;48.398;10.698;2022-08-20T06:13:08;5.43;;;5.03;;
20865;SDS011;10593;48.398;10.698;2022-08-20T06:15:35;5.20;;;4.80;;
20865;SDS011;10593;48.398;10.698;2022-08-20T06:18:01;5.67;;;5.10;;
20865;SDS011;10593;48.398;10.698;2022-08-20T06:20:32;5.23;;;4.83;;
20865;SDS011;10593;48.398;10.698;2022-08-20T06:23:03;5.83;;;5.33;;
20865;SDS011;10593;48.398;10.698;2022-08-20T06:25:29;5.30;;;4.90;;
20865;SDS011;10593;48.398;10.698;2022-08-20T06:27:57;5.50;;;5.10;;
20865;SDS011;10593;48.398;10.698;2022-08-20T06:30:23;5.87;;;5.37;;
20865;SDS011;10593;48.398;10.698;2022-08-20T06:32:49;5.43;;;5.03;;
20865;SDS011;10593;48.398;10.698;2022-08-20T06:35:15;5.23;;;4.83;;
20865;SDS011;10593;48.398;10.698;2022-08-20T06:37:41;5.27;;;4.87;;
20865;SDS011;10593;48.398;10.698;2022-08-20T06:40:14;5.17;;;4.77;;
20865;SDS011;10593;48.398;10.698;2022-08-20T06:42:47;5.53;;;5.03;;
20865;SDS011;10593;48.398;10.698;2022-08-20T06:45:15;5.33;;;4.90;;
20865;SDS011;10593;48.398;10.698;2022-08-20T06:47:45;5.43;;;5.03;;
20865;SDS011;10593;48.398;10.698;2022-08-20T06:50:14;5.50;;;5.03;;
20865;SDS011;10593;48.398;10.698;2022-08-20T06:52:44;5.90;;;4.70;;
20865;SDS011;10593;48.398;10.698;2022-08-20T06:55:11;5.03;;;4.70;;
20865;SDS011;10593;48.398;10.698;2022-08-20T06:57:39;5.27;;;4.87;;
20865;SDS011;10593;48.398;10.698;2022-08-20T07:00:07;5.00;;;4.60;;
20865;SDS011;10593;48.398;10.698;2022-08-20T07:02:40;5.37;;;4.97;;
20865;SDS011;10593;48.398;10.698;2022-08-20T07:05:06;5.87;;;5.30;;
20865;SDS011;10593;48.398;10.698;2022-08-20T07:07:32;5.60;;;5.10;;
20865;SDS011;10593;48.398;10.698;2022-08-20T07:10:08;4.77;;;4.47;;
20865;SDS011;10593;48.398;10.698;2022-08-20T07:12:36;4.40;;;4.10;;
20865;SDS011;10593;48.398;10.698;2022-08-20T07:15:03;5.17;;;4.77;;
20865;SDS011;10593;48.398;10.698;2022-08-20T07:17:35;4.80;;;4.43;;
20865;SDS011;10593;48.398;10.698;2022-08-20T07:20:03;4.97;;;4.57;;
20865;SDS011;10593;48.398;10.698;2022-08-20T07:22:39;5.33;;;3.97;;
20865;SDS011;10593;48.398;10.698;2022-08-20T07:25:07;4.53;;;4.13;;
20865;SDS011;10593;48.398;10.698;2022-08-20T07:27:38;4.40;;;4.10;;
20865;SDS011;10593;48.398;10.698;2022-08-20T07:30:06;4.40;;;4.00;;
20865;SDS011;10593;48.398;10.698;2022-08-20T07:32:55;4.50;;;4.10;;
20865;SDS011;10593;48.398;10.698;2022-08-20T07:35:21;4.67;;;4.13;;
20865;SDS011;10593;48.398;10.698;2022-08-20T07:37:48;4.60;;;4.20;;
20865;SDS011;10593;48.398;10.698;2022-08-20T07:40:23;4.23;;;3.93;;
20865;SDS011;10593;48.398;10.698;2022-08-20T07:42:57;4.60;;;4.30;;
20865;SDS011;10593;48.398;10.698;2022-08-20T07:45:27;3.93;;;3.63;;
20865;SDS011;10593;48.398;10.698;2022-08-20T07:47:58;4.40;;;4.00;;
20865;SDS011;10593;48.398;10.698;2022-08-20T07:50:32;4.23;;;3.93;;
20865;SDS011;10593;48.398;10.698;2022-08-20T07:52:58;3.90;;;3.60;;
20865;SDS011;10593;48.398;10.698;2022-08-20T07:55:25;4.47;;;3.60;;
20865;SDS011;10593;48.398;10.698;2022-08-20T07:57:51;4.27;;;3.27;;
20865;SDS011;10593;48.398;10.698;2022-08-20T08:00:18;3.53;;;3.23;;
20865;SDS011;10593;48.398;10.698;2022-08-20T08:02:46;4.00;;;3.70;;
20865;SDS011;10593;48.398;10.698;2022-08-20T08:05:12;4.00;;;3.70;;
20865;SDS011;10593;48.398;10.698;2022-08-20T08:07:40;3.33;;;3.13;;
20865;SDS011;10593;48.398;10.698;2022-08-20T08:10:06;3.70;;;3.40;;
20865;SDS011;10593;48.398;10.698;2022-08-20T08:12:42;3.33;;;3.13;;
20865;SDS011;10593;48.398;10.698;2022-08-20T08:15:15;5.40;;;3.73;;
20865;SDS011;10593;48.398;10.698;2022-08-20T08:17:46;3.67;;;3.20;;
20865;SDS011;10593;48.398;10.698;2022-08-20T08:20:14;3.30;;;2.83;;
20865;SDS011;10593;48.398;10.698;2022-08-20T08:22:42;3.53;;;3.33;;
20865;SDS011;10593;48.398;10.698;2022-08-20T08:25:11;3.30;;;3.10;;
20865;SDS011;10593;48.398;10.698;2022-08-20T08:27:40;3.27;;;3.07;;
20865;SDS011;10593;48.398;10.698;2022-08-20T08:30:06;3.87;;;3.57;;
20865;SDS011;10593;48.398;10.698;2022-08-20T08:32:34;3.20;;;3.00;;
20865;SDS011;10593;48.398;10.698;2022-08-20T08:35:04;5.03;;;3.40;;
20865;SDS011;10593;48.398;10.698;2022-08-20T08:37:33;3.50;;;3.20;;
20865;SDS011;10593;48.398;10.698;2022-08-20T08:40:01;3.60;;;3.30;;
20865;SDS011;10593;48.398;10.698;2022-08-20T08:42:34;4.17;;;3.77;;
20865;SDS011;10593;48.398;10.698;2022-08-20T08:45:11;3.47;;;3.27;;
20865;SDS011;10593;48.398;10.698;2022-08-20T08:47:40;3.43;;;3.23;;
20865;SDS011;10593;48.398;10.698;2022-08-20T08:50:12;3.63;;;3.33;;
20865;SDS011;10593;48.398;10.698;2022-08-20T08:52:49;4.00;;;3.10;;
20865;SDS011;10593;48.398;10.698;2022-08-20T08:55:23;3.57;;;3.37;;
20865;SDS011;10593;48.398;10.698;2022-08-20T08:57:49;5.03;;;3.50;;
20865;SDS011;10593;48.398;10.698;2022-08-20T09:00:21;3.73;;;3.43;;
20865;SDS011;10593;48.398;10.698;2022-08-20T09:03:02;3.93;;;3.63;;
20865;SDS011;10593;48.398;10.698;2022-08-20T09:06:06;4.00;;;3.70;;
20865;SDS011;10593;48.398;10.698;2022-08-20T09:08:29;3.47;;;3.27;;
20865;SDS011;10593;48.398;10.698;2022-08-20T09:11:04;3.67;;;3.37;;
20865;SDS011;10593;48.398;10.698;2022-08-20T09:13:33;3.77;;;3.47;;
20865;SDS011;10593;48.398;10.698;2022-08-20T09:15:59;3.77;;;3.47;;
20865;SDS011;10593;48.398;10.698;2022-08-20T09:18:24;3.90;;;3.57;;
20865;SDS011;10593;48.398;10.698;2022-08-20T09:20:50;3.53;;;3.23;;
20865;SDS011;10593;48.398;10.698;2022-08-20T09:23:16;7.27;;;3.70;;
20865;SDS011;10593;48.398;10.698;2022-08-20T09:25:42;4.00;;;3.70;;
20865;SDS011;10593;48.398;10.698;2022-08-20T09:28:08;4.37;;;3.97;;
20865;SDS011;10593;48.398;10.698;2022-08-20T09:30:34;4.17;;;3.87;;
20865;SDS011;10593;48.398;10.698;2022-08-20T09:33:00;3.60;;;3.40;;
20865;SDS011;10593;48.398;10.698;2022-08-20T09:35:27;3.27;;;3.07;;
20865;SDS011;10593;48.398;10.698;2022-08-20T09:37:53;3.40;;;3.20;;
20865;SDS011;10593;48.398;10.698;2022-08-20T09:40:19;3.73;;;3.40;;
20865;SDS011;10593;48.398;10.698;2022-08-20T09:42:45;3.30;;;3.10;;
20865;SDS011;10593;48.398;10.698;2022-08-20T09:45:12;3.97;;;3.53;;
20865;SDS011;10593;48.398;10.698;2022-08-20T09:47:39;3.30;;;3.10;;
20865;SDS011;10593;48.398;10.698;2022-08-20T09:50:05;3.60;;;3.40;;
20865;SDS011;10593;48.398;10.698;2022-08-20T09:52:36;4.30;;;4.00;;
20865;SDS011;10593;48.398;10.698;2022-08-20T09:55:18;3.97;;;3.67;;
20865;SDS011;10593;48.398;10.698;2022-08-20T09:57:57;3.93;;;3.50;;
20865;SDS011;10593;48.398;10.698;2022-08-20T10:00:26;4.67;;;4.20;;
20865;SDS011;10593;48.398;10.698;2022-08-20T10:02:52;7.00;;;3.93;;
20865;SDS011;10593;48.398;10.698;2022-08-20T10:05:17;3.87;;;3.60;;
20865;SDS011;10593;48.398;10.698;2022-08-20T10:07:43;4.97;;;4.57;;
20865;SDS011;10593;48.398;10.698;2022-08-20T10:10:12;5.30;;;4.80;;
20865;SDS011;10593;48.398;10.698;2022-08-20T10:12:39;4.80;;;4.50;;
20865;SDS011;10593;48.398;10.698;2022-08-20T10:15:08;5.37;;;4.97;;
20865;SDS011;10593;48.398;10.698;2022-08-20T10:17:38;5.13;;;4.73;;
20865;SDS011;10593;48.398;10.698;2022-08-20T10:20:07;4.50;;;4.20;;
20865;SDS011;10593;48.398;10.698;2022-08-20T10:22:36;4.60;;;4.20;;
20865;SDS011;10593;48.398;10.698;2022-08-20T10:25:02;5.47;;;4.50;;
20865;SDS011;10593;48.398;10.698;2022-08-20T10:27:29;4.80;;;4.33;;
20865;SDS011;10593;48.398;10.698;2022-08-20T10:29:55;5.17;;;4.67;;
20865;SDS011;10593;48.398;10.698;2022-08-20T10:32:21;4.47;;;4.17;;
20865;SDS011;10593;48.398;10.698;2022-08-20T10:34:47;4.67;;;4.27;;
20865;SDS011;10593;48.398;10.698;2022-08-20T10:37:13;4.13;;;3.83;;
20865;SDS011;10593;48.398;10.698;2022-08-20T10:39:48;4.00;;;3.70;;
20865;SDS011;10593;48.398;10.698;2022-08-20T10:42:13;3.80;;;3.60;;
20865;SDS011;10593;48.398;10.698;2022-08-20T10:44:39;3.70;;;3.43;;
20865;SDS011;10593;48.398;10.698;2022-08-20T10:49:49;3.70;;;2.97;;
20865;SDS011;10593;48.398;10.698;2022-08-20T10:52:19;3.27;;;2.97;;
20865;SDS011;10593;48.398;10.698;2022-08-20T10:54:46;2.30;;;2.20;;
20865;SDS011;10593;48.398;10.698;2022-08-20T10:57:13;2.70;;;2.50;;
20865;SDS011;10593;48.398;10.698;2022-08-20T10:59:43;2.50;;;2.17;;
20865;SDS011;10593;48.398;10.698;2022-08-20T11:02:12;2.50;;;2.10;;
20865;SDS011;10593;48.398;10.698;2022-08-20T11:04:38;2.60;;;2.40;;
20865;SDS011;10593;48.398;10.698;2022-08-20T11:07:38;2.40;;;2.20;;
20865;SDS011;10593;48.398;10.698;2022-08-20T11:10:00;2.20;;;2.10;;
20865;SDS011;10593;48.398;10.698;2022-08-20T11:12:27;2.10;;;2.00;;
20865;SDS011;10593;48.398;10.698;2022-08-20T11:14:53;2.30;;;2.10;;
20865;SDS011;10593;48.398;10.698;2022-08-20T11:17:24;2.00;;;1.90;;
20865;SDS011;10593;48.398;10.698;2022-08-20T11:19:54;2.40;;;2.20;;
20865;SDS011;10593;48.398;10.698;2022-08-20T11:22:21;2.87;;;1.90;;
20865;SDS011;10593;48.398;10.698;2022-08-20T11:24:48;2.43;;;2.30;;
20865;SDS011;10593;48.398;10.698;2022-08-20T11:27:15;2.30;;;2.03;;
20865;SDS011;10593;48.398;10.698;2022-08-20T11:30:00;2.20;;;2.00;;
20865;SDS011;10593;48.398;10.698;2022-08-20T11:32:31;2.20;;;2.10;;
20865;SDS011;10593;48.398;10.698;2022-08-20T11:34:56;1.80;;;1.70;;
20865;SDS011;10593;48.398;10.698;2022-08-20T11:37:22;1.90;;;1.70;;
20865;SDS011;10593;48.398;10.698;2022-08-20T11:39:50;1.87;;;1.73;;
20865;SDS011;10593;48.398;10.698;2022-08-20T11:42:16;1.53;;;1.33;;
20865;SDS011;10593;48.398;10.698;2022-08-20T11:44:42;1.47;;;1.47;;
20865;SDS011;10593;48.398;10.698;2022-08-20T11:47:08;0.93;;;0.93;;
20865;SDS011;10593;48.398;10.698;2022-08-20T11:49:54;1.43;;;1.07;;
20865;SDS011;10593;48.398;10.698;2022-08-20T11:52:24;1.30;;;1.20;;
20865;SDS011;10593;48.398;10.698;2022-08-20T11:54:51;1.70;;;1.23;;
20865;SDS011;10593;48.398;10.698;2022-08-20T11:57:21;2.47;;;1.73;;
20865;SDS011;10593;48.398;10.698;2022-08-20T11:59:50;1.20;;;1.20;;
20865;SDS011;10593;48.398;10.698;2022-08-20T12:02:20;1.40;;;1.30;;
20865;SDS011;10593;48.398;10.698;2022-08-20T12:04:46;1.10;;;1.10;;
20865;SDS011;10593;48.398;10.698;2022-08-20T12:07:14;1.10;;;1.10;;
20865;SDS011;10593;48.398;10.698;2022-08-20T12:09:44;0.97;;;0.97;;
20865;SDS011;10593;48.398;10.698;2022-08-20T12:12:11;1.03;;;1.03;;
20865;SDS011;10593;48.398;10.698;2022-08-20T12:14:38;1.30;;;1.20;;
20865;SDS011;10593;48.398;10.698;2022-08-20T12:19:41;2.60;;;1.10;;
20865;SDS011;10593;48.398;10.698;2022-08-20T12:22:07;2.03;;;1.47;;
20865;SDS011;10593;48.398;10.698;2022-08-20T12:24:34;1.47;;;1.43;;
20865;SDS011;10593;48.398;10.698;2022-08-20T12:27:34;1.40;;;1.30;;
20865;SDS011;10593;48.398;10.698;2022-08-20T12:29:55;1.10;;;1.10;;
20865;SDS011;10593;48.398;10.698;2022-08-20T12:32:25;1.33;;;1.23;;
20865;SDS011;10593;48.398;10.698;2022-08-20T12:34:54;1.30;;;1.30;;
20865;SDS011;10593;48.398;10.698;2022-08-20T12:37:22;1.67;;;1.50;;
20865;SDS011;10593;48.398;10.698;2022-08-20T12:39:53;1.70;;;1.60;;
20865;SDS011;10593;48.398;10.698;2022-08-20T12:42:21;2.00;;;1.90;;
20865;SDS011;10593;48.398;10.698;2022-08-20T12:44:47;1.67;;;1.57;;
20865;SDS011;10593;48.398;10.698;2022-08-20T12:47:17;1.10;;;1.10;;
20865;SDS011;10593;48.398;10.698;2022-08-20T12:49:54;1.20;;;1.20;;
20865;SDS011;10593;48.398;10.698;2022-08-20T12:52:30;0.97;;;0.97;;
20865;SDS011;10593;48.398;10.698;2022-08-20T12:54:57;1.13;;;1.03;;
20865;SDS011;10593;48.398;10.698;2022-08-20T12:57:28;1.00;;;1.00;;
20865;SDS011;10593;48.398;10.698;2022-08-20T13:00:07;1.10;;;1.07;;
20865;SDS011;10593;48.398;10.698;2022-08-20T13:02:57;1.00;;;0.90;;
20865;SDS011;10593;48.398;10.698;2022-08-20T13:05:26;1.00;;;0.90;;
20865;SDS011;10593;48.398;10.698;2022-08-20T13:07:54;0.63;;;0.63;;
20865;SDS011;10593;48.398;10.698;2022-08-20T13:10:22;0.80;;;0.80;;
20865;SDS011;10593;48.398;10.698;2022-08-20T13:12:52;0.70;;;0.70;;
20865;SDS011;10593;48.398;10.698;2022-08-20T13:15:19;1.07;;;1.07;;
20865;SDS011;10593;48.398;10.698;2022-08-20T13:17:53;0.93;;;0.93;;
20865;SDS011;10593;48.398;10.698;2022-08-20T13:20:21;0.90;;;0.90;;
20865;SDS011;10593;48.398;10.698;2022-08-20T13:22:50;1.10;;;1.10;;
20865;SDS011;10593;48.398;10.698;2022-08-20T13:25:19;1.40;;;1.40;;
20865;SDS011;10593;48.398;10.698;2022-08-20T13:27:46;1.27;;;1.27;;
20865;SDS011;10593;48.398;10.698;2022-08-20T13:30:14;1.37;;;1.23;;
20865;SDS011;10593;48.398;10.698;2022-08-20T13:32:43;1.87;;;1.77;;
20865;SDS011;10593;48.398;10.698;2022-08-20T13:35:09;1.90;;;1.80;;
20865;SDS011;10593;48.398;10.698;2022-08-20T13:37:36;1.60;;;1.50;;
20865;SDS011;10593;48.398;10.698;2022-08-20T13:40:04;1.63;;;1.53;;
20865;SDS011;10593;48.398;10.698;2022-08-20T13:42:35;2.63;;;1.70;;
20865;SDS011;10593;48.398;10.698;2022-08-20T13:45:02;1.70;;;1.60;;
20865;SDS011;10593;48.398;10.698;2022-08-20T13:47:31;1.53;;;1.43;;
20865;SDS011;10593;48.398;10.698;2022-08-20T13:50:01;0.90;;;0.90;;
20865;SDS011;10593;48.398;10.698;2022-08-20T13:52:36;0.60;;;0.60;;
20865;SDS011;10593;48.398;10.698;2022-08-20T13:55:04;1.07;;;0.93;;
20865;SDS011;10593;48.398;10.698;2022-08-20T13:57:32;4.23;;;1.30;;
20865;SDS011;10593;48.398;10.698;2022-08-20T13:59:58;1.73;;;1.37;;
20865;SDS011;10593;48.398;10.698;2022-08-20T14:02:24;2.40;;;1.40;;
20865;SDS011;10593;48.398;10.698;2022-08-20T14:04:51;2.30;;;1.60;;
20865;SDS011;10593;48.398;10.698;2022-08-20T14:07:20;2.17;;;1.10;;
20865;SDS011;10593;48.398;10.698;2022-08-20T14:09:51;0.80;;;0.80;;
20865;SDS011;10593;48.398;10.698;2022-08-20T14:12:28;0.70;;;0.70;;
20865;SDS011;10593;48.398;10.698;2022-08-20T14:14:54;1.33;;;1.23;;
20865;SDS011;10593;48.398;10.698;2022-08-20T14:17:24;1.03;;;1.00;;
20865;SDS011;10593;48.398;10.698;2022-08-20T14:19:54;1.03;;;0.97;;
20865;SDS011;10593;48.398;10.698;2022-08-20T14:22:23;1.50;;;0.90;;
20865;SDS011;10593;48.398;10.698;2022-08-20T14:24:50;0.80;;;0.60;;
20865;SDS011;10593;48.398;10.698;2022-08-20T14:27:17;0.40;;;0.40;;
20865;SDS011;10593;48.398;10.698;2022-08-20T14:29:46;1.40;;;1.00;;
20865;SDS011;10593;48.398;10.698;2022-08-20T14:32:13;0.50;;;0.50;;
20865;SDS011;10593;48.398;10.698;2022-08-20T14:34:40;1.20;;;0.90;;
20865;SDS011;10593;48.398;10.698;2022-08-20T14:37:10;1.60;;;0.77;;
20865;SDS011;10593;48.398;10.698;2022-08-20T14:39:54;0.67;;;0.63;;
20865;SDS011;10593;48.398;10.698;2022-08-20T14:42:22;1.00;;;1.00;;
20865;SDS011;10593;48.398;10.698;2022-08-20T14:44:50;2.00;;;0.90;;
20865;SDS011;10593;48.398;10.698;2022-08-20T14:47:18;1.90;;;1.70;;
20865;SDS011;10593;48.398;10.698;2022-08-20T14:49:51;1.03;;;0.90;;
20865;SDS011;10593;48.398;10.698;2022-08-20T14:52:26;1.80;;;1.40;;
20865;SDS011;10593;48.398;10.698;2022-08-20T14:54:52;1.57;;;1.23;;
20865;SDS011;10593;48.398;10.698;2022-08-20T14:57:18;1.83;;;1.37;;
20865;SDS011;10593;48.398;10.698;2022-08-20T14:59:45;1.53;;;1.43;;